Time;durP1;ratioP1;P1;durP2;ratioP2;P2;SDS_P1;SDS_P2;PMS_P1;PMS_P2;Temp;Humidity;BMP_temperature;BMP_pressure;BME280_temperature;BME280_humidity;BME280_pressure;Samples;Min_cycle;Max_cycle;Signal;HPM_P1;HPM_P2
2023/01/16 00:01:56;;;;;;;26.48;13.85;;;;;;;8.40;74.83;99289.56;4246200;33;32956;-78
2023/01/16 00:04:24;;;;;;;26.48;15.13;;;;;;;9.11;72.97;99284.87;4259054;33;34736;-79
2023/01/16 00:06:52;;;;;;;27.77;15.80;;;;;;;9.41;70.88;99274.94;4259057;33;33852;-78
2023/01/16 00:09:20;;;;;;;24.98;14.40;;;;;;;8.50;74.34;99282.22;4255771;33;33189;-77
2023/01/16 00:11:48;;;;;;;22.80;14.02;;;;;;;8.56;74.89;99287.69;4259786;33;34303;-78
2023/01/16 00:14:15;;;;;;;27.25;15.35;;;;;;;8.04;77.17;99292.19;4259630;33;34646;-78
2023/01/16 00:16:42;;;;;;;23.27;12.52;;;;;;;9.07;73.54;99280.41;4259758;33;34934;-78
2023/01/16 00:19:10;;;;;;;26.30;14.75;;;;;;;9.02;72.84;99269.00;4259721;33;34508;-78
2023/01/16 00:21:38;;;;;;;29.05;15.50;;;;;;;8.67;74.12;99270.94;4255863;33;34354;-78
2023/01/16 00:24:08;;;;;;;26.83;15.35;;;;;;;7.84;78.12;99269.75;4252238;33;33994;-78
2023/01/16 00:26:35;;;;;;;27.98;14.05;;;;;;;7.66;79.78;99257.75;4259737;33;32996;-78
2023/01/16 00:29:03;;;;;;;27.92;15.15;;;;;;;7.98;78.38;99266.12;4259003;33;35706;-77
2023/01/16 00:31:31;;;;;;;27.67;14.98;;;;;;;8.41;76.97;99262.03;4258464;33;34291;-77
2023/01/16 00:33:58;;;;;;;32.13;17.50;;;;;;;8.64;75.98;99266.53;4257695;33;34725;-78
2023/01/16 00:36:26;;;;;;;28.90;13.23;;;;;;;8.61;76.12;99270.69;4259462;33;33489;-78
2023/01/16 00:38:55;;;;;;;22.02;12.57;;;;;;;8.53;77.23;99261.72;4259256;33;33262;-77
2023/01/16 00:41:23;;;;;;;26.70;13.48;;;;;;;7.65;79.94;99261.16;4258696;33;33906;-78
2023/01/16 00:43:51;;;;;;;24.95;13.32;;;;;;;8.19;78.12;99247.25;4259235;33;33945;-78
2023/01/16 00:46:19;;;;;;;23.20;13.82;;;;;;;7.74;79.87;99250.38;4259486;33;33832;-78
2023/01/16 00:48:46;;;;;;;25.08;13.80;;;;;;;7.20;82.53;99245.22;4259848;33;33407;-78
2023/01/16 00:51:14;;;;;;;29.40;14.45;;;;;;;7.03;83.94;99256.38;4260960;33;34526;-77
2023/01/16 00:53:42;;;;;;;28.73;14.57;;;;;;;6.57;87.28;99260.09;4260468;33;33347;-78
2023/01/16 00:56:09;;;;;;;28.83;14.23;;;;;;;7.44;81.94;99247.25;4260309;33;34417;-78
2023/01/16 00:58:37;;;;;;;27.13;14.18;;;;;;;7.01;84.40;99248.59;4260375;33;33808;-78
2023/01/16 01:01:05;;;;;;;26.45;14.05;;;;;;;6.62;86.52;99262.88;4260674;33;34753;-77
2023/01/16 01:03:33;;;;;;;31.80;15.68;;;;;;;6.54;86.83;99259.03;4261091;33;33943;-78
2023/01/16 01:06:06;;;;;;;29.10;14.87;;;;;;;6.48;87.51;99257.91;4260450;33;33798;-77
2023/01/16 01:08:33;;;;;;;26.55;15.10;;;;;;;8.10;81.59;99239.13;4260588;33;33256;-78
2023/01/16 01:11:08;;;;;;;23.77;12.70;;;;;;;9.58;71.96;99234.28;4261123;33;33775;-77
2023/01/16 01:13:37;;;;;;;28.05;15.38;;;;;;;10.21;69.02;99231.47;4258561;33;34562;-77
2023/01/16 01:16:05;;;;;;;27.23;14.63;;;;;;;10.63;67.56;99222.66;4261415;33;34445;-78
2023/01/16 01:18:33;;;;;;;28.12;14.95;;;;;;;10.54;66.74;99230.09;4260148;33;34185;-77
2023/01/16 01:21:18;;;;;;;28.65;15.57;;;;;;;8.81;75.23;99236.28;4249914;33;34095;-77
2023/01/16 01:23:47;;;;;;;30.15;14.82;;;;;;;8.10;76.86;99231.41;4247662;33;33525;-78
2023/01/16 01:26:16;;;;;;;31.10;15.75;;;;;;;10.39;68.87;99210.59;4247190;33;34716;-78
2023/01/16 01:28:44;;;;;;;27.60;15.00;;;;;;;11.90;62.25;99204.31;4260392;33;33375;-78
2023/01/16 01:31:12;;;;;;;24.50;13.27;;;;;;;10.99;64.59;99198.81;4260859;33;33531;-78
2023/01/16 01:33:39;;;;;;;25.85;14.48;;;;;;;9.03;71.25;99214.81;4260839;33;33859;-78
2023/01/16 01:36:08;;;;;;;25.37;15.20;;;;;;;7.79;78.19;99217.97;4260766;33;33959;-78
2023/01/16 01:38:36;;;;;;;26.55;14.75;;;;;;;7.51;79.60;99220.94;4247890;33;34193;-78
2023/01/16 01:41:03;;;;;;;30.45;15.18;;;;;;;7.08;82.27;99222.31;4260898;33;33713;-77
2023/01/16 01:43:41;;;;;;;31.35;15.15;;;;;;;6.88;83.79;99226.50;4260748;33;33611;-78
2023/01/16 01:46:18;;;;;;;32.35;15.80;;;;;;;7.12;82.66;99237.94;4252780;33;34407;-78
2023/01/16 01:48:47;;;;;;;32.75;16.80;;;;;;;7.31;82.20;99242.31;4259698;33;33176;-78
2023/01/16 01:51:21;;;;;;;30.80;15.60;;;;;;;7.46;81.95;99243.06;4247142;33;34427;-78
2023/01/16 01:54:22;;;;;;;29.50;15.35;;;;;;;7.09;83.13;99236.97;4249350;33;34687;-78
2023/01/16 01:56:55;;;;;;;32.53;13.73;;;;;;;7.26;83.16;99237.81;4260547;33;34718;-78
2023/01/16 01:59:27;;;;;;;29.75;13.93;;;;;;;7.39;82.28;99234.13;4258837;33;34411;-78
2023/01/16 02:01:55;;;;;;;29.67;13.68;;;;;;;7.63;81.36;99226.69;4247811;33;34102;-78
2023/01/16 02:04:27;;;;;;;28.55;13.85;;;;;;;7.97;80.48;99228.25;4260295;33;33936;-77
2023/01/16 02:06:57;;;;;;;31.73;13.85;;;;;;;8.64;77.32;99219.19;4247517;33;33769;-78
2023/01/16 02:09:25;;;;;;;29.83;13.68;;;;;;;8.64;77.18;99219.19;4260720;33;33502;-78
2023/01/16 02:12:01;;;;;;;26.45;13.43;;;;;;;8.22;79.88;99221.63;4247230;33;34455;-78
2023/01/16 02:14:32;;;;;;;24.52;11.75;;;;;;;9.07;74.28;99205.50;4247920;33;34692;-78
2023/01/16 02:20:23;;;;;;;25.48;12.02;;;;;;;9.71;69.43;99193.34;4246717;33;33341;-77
2023/01/16 02:23:09;;;;;;;24.90;12.50;;;;;;;10.24;70.13;99194.50;4260810;33;34346;-77
2023/01/16 02:25:55;;;;;;;26.45;13.45;;;;;;;13.16;58.64;99171.34;4261086;33;34745;-78
2023/01/16 02:28:47;;;;;;;24.80;11.68;;;;;;;13.40;57.70;99165.88;4259553;33;33708;-78
2023/01/16 02:31:39;;;;;;;23.58;11.68;;;;;;;14.34;54.25;99160.06;4254453;33;31988;-78
2023/01/16 02:34:26;;;;;;;24.67;12.27;;;;;;;13.59;56.14;99151.56;4249278;33;33704;-78
2023/01/16 02:37:11;;;;;;;28.75;13.48;;;;;;;13.08;57.05;99147.75;4260720;33;34782;-78
2023/01/16 02:40:10;;;;;;;25.67;13.00;;;;;;;13.01;58.02;99140.66;4258170;33;34848;-78
2023/01/16 02:42:42;;;;;;;28.27;13.73;;;;;;;13.53;56.49;99134.09;4251908;33;34059;-78
2023/01/16 02:45:29;;;;;;;26.08;14.20;;;;;;;13.50;55.45;99126.22;4260293;33;34342;-78
2023/01/16 02:48:09;;;;;;;30.90;14.52;;;;;;;12.67;58.08;99134.63;4247012;33;33771;-77
2023/01/16 02:50:41;;;;;;;27.05;15.15;;;;;;;9.56;69.46;99144.50;4260459;33;34059;-77
2023/01/16 02:53:22;;;;;;;31.30;16.27;;;;;;;9.55;71.43;99153.97;4234661;33;33128;-78
2023/01/16 02:55:53;;;;;;;37.00;17.35;;;;;;;8.03;77.26;99153.72;4246841;33;32382;-78
2023/01/16 02:58:21;;;;;;;36.15;16.73;;;;;;;8.54;75.47;99135.31;4258864;33;34975;-77
2023/01/16 03:00:50;;;;;;;35.35;16.90;;;;;;;7.83;78.78;99146.81;4259650;33;34503;-77
2023/01/16 03:03:36;;;;;;;34.08;16.45;;;;;;;9.86;70.16;99129.28;4259099;33;33750;-78
2023/01/16 03:06:20;;;;;;;35.95;16.35;;;;;;;12.07;61.92;99111.34;4259837;33;32825;-78
2023/01/16 03:08:52;;;;;;;32.17;15.93;;;;;;;13.54;55.96;99101.13;4256568;33;33743;-78
2023/01/16 03:11:23;;;;;;;34.05;16.75;;;;;;;13.34;56.40;99093.78;4246091;33;34727;-78
2023/01/16 03:13:56;;;;;;;31.73;15.95;;;;;;;13.59;55.18;99099.50;4246347;33;33254;-78
2023/01/16 03:16:37;;;;;;;32.85;16.17;;;;;;;9.23;70.04;99114.88;4259628;33;33912;-78
2023/01/16 03:19:17;;;;;;;34.22;15.55;;;;;;;9.35;70.64;99091.19;4256738;33;34521;-77
2023/01/16 03:22:07;;;;;;;31.65;16.02;;;;;;;8.51;74.71;99093.00;4260283;33;34478;-77
2023/01/16 03:24:54;;;;;;;34.13;15.88;;;;;;;8.41;75.48;99092.59;4260496;33;33255;-78
2023/01/16 03:27:55;;;;;;;32.55;17.15;;;;;;;8.54;75.54;99093.13;4249465;33;33693;-78
2023/01/16 03:30:29;;;;;;;32.15;15.52;;;;;;;8.62;74.94;99102.06;4258649;33;34149;-78
2023/01/16 03:33:01;;;;;;;32.80;15.50;;;;;;;9.72;70.69;99089.97;4246932;33;33741;-78
2023/01/16 03:35:33;;;;;;;32.65;14.75;;;;;;;11.17;66.01;99085.38;4260629;33;34730;-78
2023/01/16 03:38:05;;;;;;;30.02;14.95;;;;;;;12.25;61.36;99062.53;4245945;33;32542;-78
2023/01/16 03:40:35;;;;;;;31.62;14.30;;;;;;;12.31;60.79;99062.69;4247651;33;34798;-78
2023/01/16 03:43:35;;;;;;;29.67;14.90;;;;;;;12.28;61.06;99061.72;4259122;33;33375;-79
2023/01/16 03:46:10;;;;;;;34.30;15.38;;;;;;;12.04;61.74;99061.97;4260226;33;33701;-78
2023/01/16 03:48:47;;;;;;;30.70;14.27;;;;;;;11.19;63.95;99072.47;4250945;33;33811;-78
2023/01/16 03:51:21;;;;;;;29.87;16.15;;;;;;;12.04;61.40;99057.66;4246996;33;33994;-78
2023/01/16 03:54:11;;;;;;;28.83;14.05;;;;;;;11.98;61.12;99041.91;4257903;33;34559;-78
2023/01/16 03:56:45;;;;;;;31.30;14.73;;;;;;;12.32;60.19;99033.28;4259391;33;33135;-78
2023/01/16 03:59:13;;;;;;;29.23;15.60;;;;;;;11.56;61.85;99043.31;4259257;33;33806;-78
2023/01/16 04:01:55;;;;;;;29.17;15.02;;;;;;;10.94;63.65;99037.16;4257826;33;33932;-78
2023/01/16 04:04:38;;;;;;;28.30;14.10;;;;;;;10.31;65.61;99038.56;4246127;33;33420;-77
2023/01/16 04:07:13;;;;;;;29.77;15.70;;;;;;;8.97;70.98;99040.63;4259695;33;34261;-78
2023/01/16 04:09:47;;;;;;;34.17;16.27;;;;;;;8.50;74.23;99037.91;4245581;33;35182;-77
2023/01/16 04:12:19;;;;;;;34.17;16.87;;;;;;;8.36;74.44;99031.25;4260207;33;34527;-78
2023/01/16 04:14:52;;;;;;;34.20;15.30;;;;;;;7.96;77.79;99030.50;4257867;33;33809;-78
2023/01/16 04:17:19;;;;;;;32.60;16.55;;;;;;;8.78;73.68;99019.22;4258253;33;33607;-78
2023/01/16 04:19:47;;;;;;;33.03;15.93;;;;;;;8.96;72.93;99013.00;4254582;33;33442;-78
2023/01/16 04:22:26;;;;;;;35.10;15.93;;;;;;;8.26;74.85;99014.53;4255544;33;33952;-78
2023/01/16 04:24:56;;;;;;;29.55;14.60;;;;;;;9.07;72.65;99003.97;4258595;33;34015;-78
2023/01/16 04:27:24;;;;;;;30.95;14.75;;;;;;;8.99;72.60;98995.94;4260603;33;33497;-78
2023/01/16 04:29:51;;;;;;;31.25;15.55;;;;;;;8.70;73.47;98993.94;4260478;33;33398;-78
2023/01/16 04:32:19;;;;;;;31.23;15.52;;;;;;;8.85;73.18;98992.84;4260249;33;33931;-78
2023/01/16 04:34:47;;;;;;;31.70;15.55;;;;;;;8.22;75.39;98992.00;4259896;33;34146;-78
2023/01/16 04:37:16;;;;;;;30.95;15.35;;;;;;;7.80;77.49;98991.97;4255615;33;33662;-78
2023/01/16 04:39:44;;;;;;;31.08;15.18;;;;;;;7.94;77.63;98996.03;4256700;33;33793;-78
2023/01/16 04:42:11;;;;;;;29.67;15.40;;;;;;;10.37;67.62;98984.44;4261048;33;34339;-78
2023/01/16 04:44:39;;;;;;;33.60;15.30;;;;;;;10.92;65.94;98974.03;4259342;33;33919;-78
2023/01/16 04:47:06;;;;;;;27.13;13.55;;;;;;;12.21;60.62;98972.41;4261065;33;34200;-78
2023/01/16 04:49:34;;;;;;;31.45;14.13;;;;;;;13.41;55.51;98969.06;4260715;33;34665;-78
2023/01/16 04:52:02;;;;;;;25.60;12.93;;;;;;;13.62;54.51;98959.06;4260769;33;33418;-78
2023/01/16 04:54:29;;;;;;;32.75;14.80;;;;;;;12.77;56.82;98962.50;4261162;33;33929;-78
2023/01/16 04:56:57;;;;;;;28.08;13.55;;;;;;;10.92;62.28;98958.50;4257463;33;33901;-79
2023/01/16 04:59:24;;;;;;;25.85;13.25;;;;;;;10.94;62.67;98956.81;4259636;33;33768;-78
2023/01/16 05:01:52;;;;;;;27.92;13.35;;;;;;;10.13;66.25;98965.47;4259217;33;33959;-77
2023/01/16 05:04:20;;;;;;;27.02;13.45;;;;;;;9.59;68.19;98954.19;4259518;33;33931;-77
2023/01/16 05:06:48;;;;;;;26.75;13.18;;;;;;;9.79;67.75;98957.47;4259402;33;33449;-78
2023/01/16 05:09:24;;;;;;;24.55;12.37;;;;;;;9.61;68.79;98949.94;4260851;33;34326;-78
2023/01/16 05:11:52;;;;;;;28.15;14.70;;;;;;;9.72;68.46;98949.47;4260119;33;34023;-78
2023/01/16 05:14:20;;;;;;;29.90;14.07;;;;;;;10.10;67.18;98943.00;4259393;33;33663;-78
2023/01/16 05:16:47;;;;;;;28.60;14.38;;;;;;;9.45;68.66;98939.91;4260598;33;33495;-78
2023/01/16 05:19:14;;;;;;;33.67;15.07;;;;;;;8.27;73.87;98955.25;4259916;33;34428;-77
2023/01/16 05:21:42;;;;;;;29.55;13.52;;;;;;;8.24;75.00;98955.13;4260185;33;33940;-78
2023/01/16 05:24:09;;;;;;;28.05;14.70;;;;;;;8.93;72.15;98944.06;4260452;33;34117;-78
2023/01/16 05:26:37;;;;;;;30.55;17.70;;;;;;;8.04;75.79;98944.00;4247423;33;33609;-78
2023/01/16 05:29:05;;;;;;;31.85;18.05;;;;;;;8.45;74.87;98944.81;4260351;33;33681;-78
2023/01/16 05:31:32;;;;;;;29.55;15.75;;;;;;;8.62;73.87;98942.00;4247147;33;34350;-78
2023/01/16 05:34:00;;;;;;;26.48;14.02;;;;;;;8.30;74.96;98931.25;4260447;33;33550;-78
2023/01/16 05:36:27;;;;;;;26.20;14.18;;;;;;;8.58;72.91;98937.56;4259700;33;34356;-78
2023/01/16 05:38:55;;;;;;;22.75;13.88;;;;;;;9.37;70.67;98931.00;4257713;33;34354;-77
2023/01/16 05:41:23;;;;;;;26.60;12.57;;;;;;;8.92;72.17;98944.00;4250944;33;33914;-77
2023/01/16 05:43:50;;;;;;;27.02;13.73;;;;;;;9.93;68.71;98937.25;4260948;33;33937;-78
2023/01/16 05:46:18;;;;;;;27.45;13.95;;;;;;;9.60;69.20;98937.84;4260991;33;33469;-77
2023/01/16 05:48:45;;;;;;;23.87;12.88;;;;;;;10.09;68.06;98935.16;4260839;33;33718;-77
2023/01/16 05:51:13;;;;;;;25.58;13.68;;;;;;;9.71;68.13;98930.44;4260902;33;34648;-77
2023/01/16 05:53:40;;;;;;;23.90;12.80;;;;;;;9.11;70.00;98938.69;4260861;33;33362;-77
2023/01/16 05:56:09;;;;;;;28.75;14.27;;;;;;;8.68;71.95;98942.25;4260235;33;34255;-77
2023/01/16 05:58:37;;;;;;;23.55;13.00;;;;;;;8.88;72.05;98949.87;4247005;33;33942;-77
2023/01/16 06:01:05;;;;;;;26.02;13.32;;;;;;;9.46;69.75;98941.66;4259909;33;34829;-77
2023/01/16 06:03:33;;;;;;;30.10;14.43;;;;;;;8.86;71.41;98942.06;4247283;33;33265;-77
2023/01/16 06:06:01;;;;;;;24.30;12.93;;;;;;;9.14;70.93;98941.37;4259884;33;34096;-77
2023/01/16 06:08:28;;;;;;;26.08;11.45;;;;;;;11.14;63.61;98923.69;4260571;33;33639;-78
2023/01/16 06:10:57;;;;;;;22.62;12.23;;;;;;;11.89;59.43;98923.16;4260025;33;33424;-77
2023/01/16 06:13:24;;;;;;;22.05;11.15;;;;;;;11.85;60.62;98931.66;4246950;33;34717;-78
2023/01/16 06:15:51;;;;;;;20.98;11.80;;;;;;;12.57;57.16;98915.28;4259107;33;33809;-77
2023/01/16 06:18:19;;;;;;;21.75;11.48;;;;;;;9.23;67.74;98926.22;4247468;33;32431;-76
2023/01/16 06:20:47;;;;;;;24.33;11.93;;;;;;;9.53;68.08;98922.94;4260233;33;33929;-78
2023/01/16 06:23:14;;;;;;;23.85;12.52;;;;;;;10.19;65.45;98926.84;4260170;33;33867;-77
2023/01/16 06:25:42;;;;;;;29.27;12.63;;;;;;;9.88;66.90;98925.84;4260168;33;31989;-77
2023/01/16 06:28:09;;;;;;;20.62;11.93;;;;;;;10.19;65.96;98922.56;4260249;33;33896;-77
2023/01/16 06:30:37;;;;;;;23.35;11.75;;;;;;;11.19;62.82;98899.66;4258144;33;33845;-77
2023/01/16 06:33:04;;;;;;;27.15;13.60;;;;;;;12.26;58.53;98900.69;4260010;33;33649;-77
2023/01/16 06:35:33;;;;;;;24.20;12.57;;;;;;;9.91;65.94;98906.97;4260751;33;33404;-77
2023/01/16 06:38:00;;;;;;;24.90;12.27;;;;;;;11.31;61.57;98893.06;4259969;33;33756;-77
2023/01/16 06:40:28;;;;;;;24.58;12.37;;;;;;;11.71;59.87;98891.53;4260089;33;34005;-77
2023/01/16 06:42:56;;;;;;;22.37;12.23;;;;;;;10.89;62.46;98898.81;4260709;33;33960;-78
2023/01/16 06:45:24;;;;;;;24.17;12.18;;;;;;;10.91;62.29;98894.53;4259959;33;33525;-77
2023/01/16 06:47:52;;;;;;;25.48;12.55;;;;;;;11.30;61.37;98899.97;4259445;33;33900;-77
2023/01/16 06:50:19;;;;;;;21.62;11.35;;;;;;;12.34;58.11;98883.59;4260099;33;34684;-77
2023/01/16 06:52:48;;;;;;;20.30;11.27;;;;;;;11.79;59.43;98880.50;4259597;33;33978;-77
2023/01/16 06:55:15;;;;;;;19.70;11.57;;;;;;;11.13;61.04;98896.91;4260128;33;34331;-77
2023/01/16 06:57:45;;;;;;;21.35;11.15;;;;;;;10.57;62.89;98907.38;4257839;33;34606;-77
2023/01/16 07:00:13;;;;;;;19.27;10.95;;;;;;;11.07;61.62;98906.22;4256024;33;33934;-77
2023/01/16 07:02:41;;;;;;;21.50;11.60;;;;;;;12.27;57.69;98899.88;4255397;33;33349;-77
2023/01/16 07:05:09;;;;;;;21.45;11.68;;;;;;;12.19;57.91;98897.09;4260646;33;33873;-77
2023/01/16 07:07:37;;;;;;;23.65;12.80;;;;;;;11.57;59.70;98904.13;4259832;33;33813;-77
2023/01/16 07:10:05;;;;;;;22.17;11.85;;;;;;;12.27;57.99;98904.19;4257951;33;34394;-77
2023/01/16 07:12:32;;;;;;;23.25;12.73;;;;;;;12.38;57.60;98907.88;4258433;33;33559;-77
2023/01/16 07:23:22;;;;;;;27.52;12.77;;;;;;;12.30;58.31;98894.72;4258874;33;33679;-77
2023/01/16 07:25:53;;;;;;;27.87;15.95;;;;;;;12.32;58.19;98890.47;4245688;33;34872;-77
2023/01/16 07:28:20;;;;;;;27.83;14.70;;;;;;;12.17;58.74;98903.97;4246901;33;33797;-77
2023/01/16 07:30:49;;;;;;;28.70;15.95;;;;;;;12.32;58.40;98889.56;4257244;33;33894;-77
2023/01/16 07:33:16;;;;;;;27.90;15.27;;;;;;;12.38;58.27;98901.00;4259102;33;33271;-78
2023/01/16 07:35:45;;;;;;;29.35;16.60;;;;;;;12.66;57.53;98892.94;4261167;33;34349;-77
2023/01/16 07:38:12;;;;;;;32.35;17.30;;;;;;;12.44;58.16;98881.19;4257034;33;34525;-77
2023/01/16 07:40:40;;;;;;;35.97;20.58;;;;;;;12.39;58.21;98868.09;4259436;33;33889;-77
2023/01/16 07:43:07;;;;;;;47.35;27.37;;;;;;;12.55;57.93;98858.91;4259058;33;33884;-78
2023/01/16 07:45:35;;;;;;;55.90;32.80;;;;;;;12.26;58.80;98866.94;4259604;33;33268;-78
2023/01/16 07:48:03;;;;;;;60.88;34.55;;;;;;;12.46;58.24;98849.22;4259123;33;34511;-77
2023/01/16 07:50:31;;;;;;;53.40;29.52;;;;;;;12.57;57.91;98841.66;4257564;33;33750;-78
2023/01/16 07:52:58;;;;;;;46.85;27.45;;;;;;;12.69;57.52;98839.31;4244983;33;32507;-78
2023/01/16 07:55:26;;;;;;;52.72;29.10;;;;;;;12.66;57.69;98835.78;4258931;33;34165;-78
2023/01/16 07:57:54;;;;;;;35.72;20.08;;;;;;;12.71;57.59;98824.63;4245477;33;34424;-78
2023/01/16 08:00:21;;;;;;;38.17;18.37;;;;;;;12.21;59.01;98832.22;4255994;33;33570;-77
2023/01/16 08:02:49;;;;;;;36.70;18.50;;;;;;;12.39;58.84;98816.16;4258323;33;33681;-77
2023/01/16 08:05:17;;;;;;;46.22;25.90;;;;;;;12.66;58.02;98805.47;4258635;33;32119;-77
2023/01/16 08:07:46;;;;;;;39.35;19.98;;;;;;;12.85;57.67;98806.72;4258142;33;34396;-78
2023/01/16 08:10:14;;;;;;;37.03;19.55;;;;;;;12.58;58.24;98796.66;4257509;33;33939;-77
2023/01/16 08:12:42;;;;;;;34.75;18.62;;;;;;;12.51;58.79;98794.75;4258999;33;34446;-77
2023/01/16 08:15:09;;;;;;;36.88;18.92;;;;;;;10.84;64.36;98794.19;4259356;33;33574;-77
2023/01/16 08:17:40;;;;;;;37.75;18.40;;;;;;;11.78;61.94;98790.53;4258022;33;34036;-78
2023/01/16 08:20:08;;;;;;;38.67;19.55;;;;;;;12.79;58.42;98786.69;4253997;33;34696;-77
2023/01/16 08:22:45;;;;;;;36.65;16.85;;;;;;;12.43;59.59;98778.16;4259341;33;34335;-78
2023/01/16 08:25:14;;;;;;;37.45;18.45;;;;;;;12.96;58.30;98775.72;4255550;33;33326;-78
2023/01/16 08:27:41;;;;;;;33.30;18.00;;;;;;;12.72;58.94;98774.41;4255476;33;33557;-77
2023/01/16 08:30:10;;;;;;;28.87;15.55;;;;;;;12.26;60.20;98768.25;4246121;33;33974;-78
2023/01/16 08:32:38;;;;;;;28.95;16.60;;;;;;;12.91;58.47;98764.38;4259503;33;33866;-78
2023/01/16 08:35:06;;;;;;;29.70;15.48;;;;;;;13.09;57.90;98761.22;4258867;33;34028;-78
2023/01/16 08:37:33;;;;;;;23.60;13.43;;;;;;;11.58;61.66;98753.72;4254803;33;34442;-78
2023/01/16 08:40:03;;;;;;;24.40;13.80;;;;;;;11.08;63.14;98743.00;4244900;33;32986;-78
2023/01/16 08:53:36;;;;;;;24.87;13.25;;;;;;;10.11;67.86;98717.00;4247493;33;33612;-78
2023/01/16 08:56:04;;;;;;;26.48;13.48;;;;;;;10.43;66.37;98709.34;4258087;33;33416;-78
2023/01/16 08:58:31;;;;;;;24.00;13.13;;;;;;;10.24;66.62;98707.91;4246249;33;33415;-78
2023/01/16 09:00:59;;;;;;;31.55;13.75;;;;;;;10.25;67.44;98704.47;4245412;33;33422;-78
2023/01/16 09:03:29;;;;;;;35.78;17.48;;;;;;;10.25;67.38;98699.28;4255332;33;36056;-78
2023/01/16 09:05:56;;;;;;;49.55;24.92;;;;;;;10.97;64.31;98687.41;4256789;33;32717;-78
2023/01/16 09:08:24;;;;;;;41.58;20.95;;;;;;;10.38;66.29;98680.72;4257589;33;34471;-78
2023/01/16 09:13:48;;;;;;;52.95;29.30;;;;;;;10.50;65.78;98679.31;4257504;33;34586;-79
2023/01/16 09:13:49;;;;;;;28.80;15.70;;;;;;;10.15;67.01;98671.41;4251857;33;34780;-78
2023/01/16 09:16:19;;;;;;;48.42;25.73;;;;;;;10.47;65.37;98666.25;4258240;33;33917;-78
2023/01/16 09:18:47;;;;;;;38.33;23.55;;;;;;;9.92;68.14;98658.69;4258849;33;34166;-78
2023/01/16 09:21:15;;;;;;;39.08;22.08;;;;;;;10.53;65.59;98648.31;4247398;33;31092;-78
2023/01/16 09:23:43;;;;;;;39.85;23.30;;;;;;;10.68;65.14;98638.38;4260753;33;34405;-78
2023/01/16 09:26:10;;;;;;;33.33;18.33;;;;;;;10.29;66.11;98633.84;4260093;33;33261;-78
2023/01/16 09:28:37;;;;;;;37.20;20.83;;;;;;;9.88;68.11;98625.81;4250927;33;34125;-77
2023/01/16 09:31:05;;;;;;;32.40;18.20;;;;;;;9.99;67.37;98621.81;4260384;33;33556;-79
2023/01/16 09:33:33;;;;;;;47.58;29.00;;;;;;;11.19;63.46;98611.97;4260402;33;33700;-78
2023/01/16 09:36:01;;;;;;;31.92;17.98;;;;;;;10.77;65.48;98606.63;4246847;33;34898;-78
2023/01/16 09:38:28;;;;;;;26.67;14.52;;;;;;;11.44;62.84;98599.56;4259977;33;34471;-78
2023/01/16 09:40:57;;;;;;;29.80;15.02;;;;;;;11.17;62.95;98590.31;4259208;33;33875;-78
2023/01/16 09:43:40;;;;;;;35.10;19.25;;;;;;;10.88;64.67;98588.75;4258343;33;34726;-78
2023/01/16 09:46:16;;;;;;;28.40;14.23;;;;;;;11.59;62.33;98580.88;4242406;33;34712;-78
2023/01/16 09:49:00;;;;;;;28.85;14.52;;;;;;;12.07;60.77;98574.03;4259908;33;34029;-78
2023/01/16 09:51:35;;;;;;;27.58;14.35;;;;;;;11.90;61.07;98566.81;4244956;33;33852;-78
2023/01/16 10:00:01;;;;;;;28.00;14.52;;;;;;;11.05;62.83;98551.16;4258507;33;32598;-79
2023/01/16 10:02:32;;;;;;;28.87;15.05;;;;;;;10.93;63.69;98550.88;4257250;33;33466;-77
2023/01/16 10:05:02;;;;;;;26.95;14.93;;;;;;;11.09;63.16;98542.63;4246411;33;34597;-78
2023/01/16 10:07:49;;;;;;;27.98;15.00;;;;;;;11.43;61.92;98532.97;4256278;33;33541;-78
2023/01/16 10:10:20;;;;;;;27.80;15.38;;;;;;;11.79;60.99;98537.16;4256690;33;34043;-77
2023/01/16 10:13:16;;;;;;;29.15;15.20;;;;;;;11.92;60.65;98527.94;4260307;33;33463;-78
2023/01/16 10:16:02;;;;;;;31.42;16.50;;;;;;;11.44;62.02;98526.94;4245365;33;33943;-78
2023/01/16 10:18:39;;;;;;;26.08;13.82;;;;;;;11.94;60.38;98505.47;4257325;33;34119;-80
2023/01/16 10:21:38;;;;;;;28.92;14.77;;;;;;;10.39;65.76;98510.72;4256428;33;33641;-79
2023/01/16 10:24:22;;;;;;;27.50;13.93;;;;;;;10.38;65.79;98502.09;4248409;33;33895;-78
2023/01/16 10:26:57;;;;;;;32.47;15.93;;;;;;;9.68;68.88;98487.31;4260044;33;34028;-78
2023/01/16 10:29:33;;;;;;;27.50;13.05;;;;;;;10.11;67.59;98488.44;4247632;33;33597;-78
2023/01/16 10:32:24;;;;;;;25.52;13.43;;;;;;;9.96;68.21;98487.19;4251907;33;34381;-79
2023/01/16 10:35:03;;;;;;;31.98;14.50;;;;;;;10.66;65.97;98482.03;4245747;33;33329;-78
2023/01/16 10:37:32;;;;;;;30.00;14.35;;;;;;;10.28;66.65;98475.94;4247610;33;33542;-78
2023/01/16 10:40:10;;;;;;;28.65;15.02;;;;;;;10.46;65.97;98465.19;4259255;33;33541;-78
2023/01/16 10:51:03;;;;;;;32.85;15.27;;;;;;;10.38;66.38;98432.22;4258299;33;33112;-79
2023/01/16 10:53:32;;;;;;;31.27;15.13;;;;;;;9.74;68.91;98425.44;4245780;33;33681;-78
2023/01/16 10:56:00;;;;;;;29.23;14.77;;;;;;;10.18;67.30;98417.91;4257130;33;33990;-78
2023/01/16 10:58:36;;;;;;;31.35;15.20;;;;;;;10.36;66.81;98420.94;4260375;33;34694;-78
2023/01/16 11:01:16;;;;;;;29.05;14.75;;;;;;;10.76;65.51;98414.09;4244597;33;33480;-77
2023/01/16 11:03:45;;;;;;;31.15;14.98;;;;;;;10.66;65.69;98406.06;4258655;33;34328;-77
2023/01/16 11:06:24;;;;;;;30.15;14.75;;;;;;;10.57;65.85;98404.16;4245186;33;34014;-77
2023/01/16 11:08:54;;;;;;;30.10;15.40;;;;;;;10.25;67.21;98396.50;4236921;33;32532;-77
2023/01/16 11:20:21;;;;;;;34.45;15.40;;;;;;;10.63;65.28;98366.31;4257366;33;33413;-78
2023/01/16 11:23:20;;;;;;;33.47;15.80;;;;;;;10.23;66.78;98369.72;4246818;33;33662;-77
2023/01/16 11:25:50;;;;;;;43.10;20.40;;;;;;;11.11;64.17;98354.34;4242423;33;33900;-78
2023/01/16 11:28:24;;;;;;;31.90;16.77;;;;;;;11.17;63.16;98344.09;4248204;33;34423;-78
2023/01/16 11:30:55;;;;;;;33.05;16.05;;;;;;;11.05;64.37;98330.91;4257652;33;34652;-77
2023/01/16 11:33:27;;;;;;;32.45;17.45;;;;;;;10.68;65.92;98348.31;4261345;33;33424;-77
2023/01/16 11:35:57;;;;;;;31.23;16.08;;;;;;;11.46;62.87;98325.59;4259219;33;33856;-78
2023/01/16 11:38:27;;;;;;;31.08;15.32;;;;;;;10.36;67.30;98330.34;4246485;33;34572;-77
2023/01/16 11:40:56;;;;;;;32.63;15.77;;;;;;;10.82;64.90;98315.78;4256697;33;33166;-78
2023/01/16 11:46:25;;;;;;;29.23;14.10;;;;;;;11.34;63.69;98302.06;4257515;33;34553;-78
2023/01/16 11:49:14;;;;;;;31.20;15.57;;;;;;;10.72;64.94;98306.09;4246228;33;33859;-78
2023/01/16 11:51:42;;;;;;;30.02;14.70;;;;;;;10.48;67.41;98298.69;4256444;33;34121;-77
2023/01/16 11:54:16;;;;;;;29.63;14.38;;;;;;;11.27;63.65;98288.13;4258694;33;33667;-78
2023/01/16 11:56:47;;;;;;;29.83;16.58;;;;;;;11.11;64.79;98286.97;4246542;33;34540;-77
2023/01/16 11:59:52;;;;;;;31.60;14.57;;;;;;;10.69;66.15;98282.72;4259216;33;33609;-78
2023/01/16 12:03:00;;;;;;;30.45;14.77;;;;;;;10.48;65.96;98272.78;4258485;33;33989;-78
2023/01/16 12:06:02;;;;;;;32.80;14.38;;;;;;;10.73;65.25;98253.44;4259466;33;32981;-78
2023/01/16 12:08:48;;;;;;;27.83;14.07;;;;;;;11.00;64.12;98247.03;4250323;33;33663;-78
2023/01/16 12:11:48;;;;;;;31.90;13.73;;;;;;;9.78;68.91;98243.66;4252267;33;32410;-78
2023/01/16 12:14:43;;;;;;;32.50;15.57;;;;;;;10.50;66.76;98234.00;4247415;33;34646;-78
2023/01/16 12:17:22;;;;;;;30.83;13.88;;;;;;;10.06;68.27;98221.84;4246505;33;33210;-78
2023/01/16 12:19:56;;;;;;;35.90;16.30;;;;;;;10.37;67.33;98223.41;4246565;33;34112;-78
2023/01/16 12:22:48;;;;;;;37.55;16.67;;;;;;;9.49;70.35;98207.66;4250685;33;34429;-77
2023/01/16 12:25:37;;;;;;;33.33;15.82;;;;;;;9.47;71.10;98214.50;4258256;33;33865;-78
2023/01/16 12:28:26;;;;;;;34.53;15.23;;;;;;;9.16;71.94;98195.69;4242762;33;33531;-76
2023/01/16 12:31:46;;;;;;;38.47;18.50;;;;;;;10.00;69.87;98201.87;4245375;33;34401;-79
2023/01/16 12:34:07;;;;;;;33.80;15.70;;;;;;;11.06;65.03;98174.59;4255925;33;32226;-79